sensor_id;sensor_type;location;lat;lon;timestamp;pressure;altitude;pressure_sealevel;temperature;humidity
44531;BME280;30240;47.418;0.700;2023-08-24T00:01:13;100034.73510742188;;;25.64;69.94
44531;BME280;30240;47.418;0.700;2023-08-24T00:03:39;100034.73510742188;;;25.64;69.94
44531;BME280;30240;47.418;0.700;2023-08-24T00:06:04;100035.77880859375;;;25.66;70.03
44531;BME280;30240;47.418;0.700;2023-08-24T00:08:28;100034.42993164062;;;25.61;69.91
44531;BME280;30240;47.418;0.700;2023-08-24T00:10:54;100031.3720703125;;;25.64;69.8
44531;BME280;30240;47.418;0.700;2023-08-24T00:13:18;100022.8271484375;;;25.6;70.06
44531;BME280;30240;47.418;0.700;2023-08-24T00:15:44;100022.8271484375;;;25.6;70.06
44531;BME280;30240;47.418;0.700;2023-08-24T00:18:08;100021.28295898438;;;25.53;69.99
44531;BME280;30240;47.418;0.700;2023-08-24T00:20:33;100015.07568359375;;;25.51;70.3
44531;BME280;30240;47.418;0.700;2023-08-24T00:22:59;100005.517578125;;;25.43;70.41
44531;BME280;30240;47.418;0.700;2023-08-24T00:25:24;100001.36108398438;;;25.46;70.22
44531;BME280;30240;47.418;0.700;2023-08-24T00:27:48;100001.36108398438;;;25.46;70.22
44531;BME280;30240;47.418;0.700;2023-08-24T00:30:14;100005.10864257812;;;25.42;70.5
44531;BME280;30240;47.418;0.700;2023-08-24T00:32:38;100004.18701171875;;;25.37;70.59
44531;BME280;30240;47.418;0.700;2023-08-24T00:35:05;100006.71997070312;;;25.42;70.63
44531;BME280;30240;47.418;0.700;2023-08-24T00:37:28;100002.96630859375;;;25.36;70.58
44531;BME280;30240;47.418;0.700;2023-08-24T00:39:54;100002.96630859375;;;25.36;70.58
44531;BME280;30240;47.418;0.700;2023-08-24T00:42:19;100004.345703125;;;25.28;70.7
44531;BME280;30240;47.418;0.700;2023-08-24T00:44:43;100010.9375;;;25.16;70.99
44531;BME280;30240;47.418;0.700;2023-08-24T00:47:09;100011.7919921875;;;25.16;71.31
44531;BME280;30240;47.418;0.700;2023-08-24T00:49:34;100016.357421875;;;25.14;71.51
44531;BME280;30240;47.418;0.700;2023-08-24T00:51:58;100016.357421875;;;25.14;71.51
44531;BME280;30240;47.418;0.700;2023-08-24T00:54:23;100008.8623046875;;;25.1;71.61
44531;BME280;30240;47.418;0.700;2023-08-24T00:56:48;100012.34130859375;;;25.11;71.51
44531;BME280;30240;47.418;0.700;2023-08-24T00:59:13;100013.97094726562;;;25.03;71.49
44531;BME280;30240;47.418;0.700;2023-08-24T01:01:39;100015.20385742188;;;25.07;71.45
44531;BME280;30240;47.418;0.700;2023-08-24T01:04:04;100015.20385742188;;;25.07;71.45
44531;BME280;30240;47.418;0.700;2023-08-24T01:06:28;100013.97094726562;;;24.98;71.6
44531;BME280;30240;47.418;0.700;2023-08-24T01:08:54;100016.56494140625;;;25.03;71.63
44531;BME280;30240;47.418;0.700;2023-08-24T01:11:23;100015.29541015625;;;24.97;71.66
44531;BME280;30240;47.418;0.700;2023-08-24T01:11:28;100015.29541015625;;;24.97;71.66
44531;BME280;30240;47.418;0.700;2023-08-24T01:11:32;100015.29541015625;;;24.97;71.66
44531;BME280;30240;47.418;0.700;2023-08-24T01:13:48;100014.53857421875;;;24.86;72.04
44531;BME280;30240;47.418;0.700;2023-08-24T01:16:12;100014.53857421875;;;24.86;72.04
44531;BME280;30240;47.418;0.700;2023-08-24T01:18:34;100013.4033203125;;;24.92;72.06
44531;BME280;30240;47.418;0.700;2023-08-24T01:20:58;100011.41967773438;;;24.87;72.25
44531;BME280;30240;47.418;0.700;2023-08-24T01:23:31;100010.23559570312;;;24.77;72.53
44531;BME280;30240;47.418;0.700;2023-08-24T01:25:52;100005.72509765625;;;24.87;72.29
44531;BME280;30240;47.418;0.700;2023-08-24T01:28:14;100000.28076171875;;;24.76;72.64
44531;BME280;30240;47.418;0.700;2023-08-24T01:30:39;100000.28076171875;;;24.76;72.64
44531;BME280;30240;47.418;0.700;2023-08-24T01:33:04;99999.42016601562;;;24.73;72.9
44531;BME280;30240;47.418;0.700;2023-08-24T01:35:28;99996.78344726562;;;24.74;72.86
44531;BME280;30240;47.418;0.700;2023-08-24T01:37:53;99994.59228515625;;;24.74;72.94
44531;BME280;30240;47.418;0.700;2023-08-24T01:40:22;100000.06103515625;;;24.77;72.7
44531;BME280;30240;47.418;0.700;2023-08-24T01:42:49;100000.06103515625;;;24.77;72.7
44531;BME280;30240;47.418;0.700;2023-08-24T01:45:10;99995.14770507812;;;24.74;72.91
44531;BME280;30240;47.418;0.700;2023-08-24T01:47:35;99996.61865234375;;;24.53;73.46
44531;BME280;30240;47.418;0.700;2023-08-24T01:49:59;99991.37573242188;;;24.53;73.67
44531;BME280;30240;47.418;0.700;2023-08-24T01:52:24;99990.32592773438;;;24.42;73.84
44531;BME280;30240;47.418;0.700;2023-08-24T01:54:48;99990.32592773438;;;24.42;73.84
44531;BME280;30240;47.418;0.700;2023-08-24T01:57:13;99990.43579101562;;;24.33;74.34
44531;BME280;30240;47.418;0.700;2023-08-24T01:59:38;99987.92114257812;;;24.29;74.31
44531;BME280;30240;47.418;0.700;2023-08-24T02:02:04;99987.83569335938;;;24.36;74.31
44531;BME280;30240;47.418;0.700;2023-08-24T02:04:28;99979.91943359375;;;24.29;74.52
44531;BME280;30240;47.418;0.700;2023-08-24T02:06:53;99979.91943359375;;;24.29;74.52
44531;BME280;30240;47.418;0.700;2023-08-24T02:09:18;99980.2490234375;;;24.25;74.68
44531;BME280;30240;47.418;0.700;2023-08-24T02:11:43;99979.736328125;;;24.24;74.55
44531;BME280;30240;47.418;0.700;2023-08-24T02:14:08;99981.8359375;;;24.26;74.85
44531;BME280;30240;47.418;0.700;2023-08-24T02:16:35;99982.03125;;;24.18;75.02
44531;BME280;30240;47.418;0.700;2023-08-24T02:18:58;99982.03125;;;24.18;75.02
44531;BME280;30240;47.418;0.700;2023-08-24T02:21:23;99976.123046875;;;24.18;75.05
44531;BME280;30240;47.418;0.700;2023-08-24T02:23:49;99970.95336914062;;;24.15;75.08
44531;BME280;30240;47.418;0.700;2023-08-24T02:26:13;99966.32690429688;;;24.11;75.02
44531;BME280;30240;47.418;0.700;2023-08-24T02:28:38;99966.69311523438;;;24.05;75.24
44531;BME280;30240;47.418;0.700;2023-08-24T02:31:04;99966.69311523438;;;24.05;75.24
44531;BME280;30240;47.418;0.700;2023-08-24T02:33:28;99958.51440429688;;;24.08;75.36
44531;BME280;30240;47.418;0.700;2023-08-24T02:35:53;99963.1591796875;;;24.17;75.3
44531;BME280;30240;47.418;0.700;2023-08-24T02:38:18;99953.10668945312;;;24.1;75.13
44531;BME280;30240;47.418;0.700;2023-08-24T02:40:43;99952.23388671875;;;24.07;75.46
44531;BME280;30240;47.418;0.700;2023-08-24T02:43:08;99952.23388671875;;;24.07;75.46
44531;BME280;30240;47.418;0.700;2023-08-24T02:45:34;99940.64331054688;;;24.0;75.46
44531;BME280;30240;47.418;0.700;2023-08-24T02:47:58;99941.49780273438;;;23.94;75.55
44531;BME280;30240;47.418;0.700;2023-08-24T02:50:23;99936.23657226562;;;23.94;75.46
44531;BME280;30240;47.418;0.700;2023-08-24T02:52:49;99931.70166015625;;;23.98;75.43
44531;BME280;30240;47.418;0.700;2023-08-24T02:55:14;99931.70166015625;;;23.98;75.43
44531;BME280;30240;47.418;0.700;2023-08-24T02:57:39;99934.97924804688;;;23.96;75.43
44531;BME280;30240;47.418;0.700;2023-08-24T03:00:04;99937.02392578125;;;23.9;75.54
44531;BME280;30240;47.418;0.700;2023-08-24T03:02:29;99936.5478515625;;;23.94;75.95
44531;BME280;30240;47.418;0.700;2023-08-24T03:04:53;99928.8818359375;;;23.77;75.95
44531;BME280;30240;47.418;0.700;2023-08-24T03:07:18;99924.31030273438;;;23.87;75.85
44531;BME280;30240;47.418;0.700;2023-08-24T03:09:44;99924.31030273438;;;23.87;75.85
44531;BME280;30240;47.418;0.700;2023-08-24T03:12:09;99925.68969726562;;;23.94;75.45
44531;BME280;30240;47.418;0.700;2023-08-24T03:14:34;99924.83520507812;;;23.94;75.32
44531;BME280;30240;47.418;0.700;2023-08-24T03:16:58;99924.3408203125;;;23.79;75.67
44531;BME280;30240;47.418;0.700;2023-08-24T03:19:23;99927.28881835938;;;23.83;75.86
44531;BME280;30240;47.418;0.700;2023-08-24T03:21:48;99927.28881835938;;;23.83;75.86
44531;BME280;30240;47.418;0.700;2023-08-24T03:24:13;99926.28173828125;;;23.87;75.79
44531;BME280;30240;47.418;0.700;2023-08-24T03:26:38;99924.96948242188;;;23.74;75.9
44531;BME280;30240;47.418;0.700;2023-08-24T03:29:03;99930.60913085938;;;23.7;76.08
44531;BME280;30240;47.418;0.700;2023-08-24T03:31:28;99932.44018554688;;;23.62;76.09
44531;BME280;30240;47.418;0.700;2023-08-24T03:33:53;99932.44018554688;;;23.62;76.09
44531;BME280;30240;47.418;0.700;2023-08-24T03:36:18;99930.82885742188;;;23.76;76.13
44531;BME280;30240;47.418;0.700;2023-08-24T03:38:43;99928.0029296875;;;23.67;76.07
44531;BME280;30240;47.418;0.700;2023-08-24T03:41:08;99924.267578125;;;23.73;75.83
44531;BME280;30240;47.418;0.700;2023-08-24T03:43:34;99927.09350585938;;;23.69;76.13
44531;BME280;30240;47.418;0.700;2023-08-24T03:45:59;99927.09350585938;;;23.69;76.13
44531;BME280;30240;47.418;0.700;2023-08-24T03:48:23;99934.01489257812;;;23.59;76.19
44531;BME280;30240;47.418;0.700;2023-08-24T03:50:48;99939.59350585938;;;23.62;76.12
44531;BME280;30240;47.418;0.700;2023-08-24T03:53:13;99939.61181640625;;;23.65;76.22
44531;BME280;30240;47.418;0.700;2023-08-24T03:55:38;99942.26684570312;;;23.63;76.08
44531;BME280;30240;47.418;0.700;2023-08-24T03:58:03;99942.26684570312;;;23.63;76.08
44531;BME280;30240;47.418;0.700;2023-08-24T04:00:28;99947.0947265625;;;23.62;76.37
44531;BME280;30240;47.418;0.700;2023-08-24T04:02:53;99949.04174804688;;;23.67;76.21
44531;BME280;30240;47.418;0.700;2023-08-24T04:05:18;99938.42163085938;;;23.74;76.14
44531;BME280;30240;47.418;0.700;2023-08-24T04:07:43;99926.904296875;;;23.76;76.0
44531;BME280;30240;47.418;0.700;2023-08-24T04:10:09;99926.904296875;;;23.76;76.0
44531;BME280;30240;47.418;0.700;2023-08-24T04:12:34;99928.21655273438;;;23.74;75.95
44531;BME280;30240;47.418;0.700;2023-08-24T04:14:58;99929.27856445312;;;23.79;75.93
44531;BME280;30240;47.418;0.700;2023-08-24T04:17:23;99933.0078125;;;23.8;75.8
44531;BME280;30240;47.418;0.700;2023-08-24T04:19:48;99938.53149414062;;;23.76;75.79
44531;BME280;30240;47.418;0.700;2023-08-24T04:22:13;99938.53149414062;;;23.76;75.79
44531;BME280;30240;47.418;0.700;2023-08-24T04:24:38;99938.134765625;;;23.65;76.2
44531;BME280;30240;47.418;0.700;2023-08-24T04:27:03;99939.34326171875;;;23.65;76.19
44531;BME280;30240;47.418;0.700;2023-08-24T04:29:28;99934.82666015625;;;23.65;76.36
44531;BME280;30240;47.418;0.700;2023-08-24T04:31:53;99934.00268554688;;;23.61;76.45
44531;BME280;30240;47.418;0.700;2023-08-24T04:34:19;99926.20849609375;;;23.55;76.62
44531;BME280;30240;47.418;0.700;2023-08-24T04:36:43;99926.20849609375;;;23.55;76.62
44531;BME280;30240;47.418;0.700;2023-08-24T04:39:09;99924.853515625;;;23.55;76.71
44531;BME280;30240;47.418;0.700;2023-08-24T04:41:33;99927.93579101562;;;23.65;76.64
44531;BME280;30240;47.418;0.700;2023-08-24T04:43:58;99918.8720703125;;;23.71;76.46
44531;BME280;30240;47.418;0.700;2023-08-24T04:46:24;99919.4091796875;;;23.59;76.63
44531;BME280;30240;47.418;0.700;2023-08-24T04:48:49;99919.4091796875;;;23.59;76.63
44531;BME280;30240;47.418;0.700;2023-08-24T04:51:14;99922.85766601562;;;23.59;76.57
44531;BME280;30240;47.418;0.700;2023-08-24T04:53:39;99922.40600585938;;;23.49;76.56
44531;BME280;30240;47.418;0.700;2023-08-24T04:56:04;99926.16577148438;;;23.41;76.8
44531;BME280;30240;47.418;0.700;2023-08-24T04:58:29;99917.81005859375;;;23.39;77.22
44531;BME280;30240;47.418;0.700;2023-08-24T05:00:53;99917.81005859375;;;23.39;77.22
44531;BME280;30240;47.418;0.700;2023-08-24T05:03:18;99918.9697265625;;;23.42;77.15
44531;BME280;30240;47.418;0.700;2023-08-24T05:05:45;99916.48559570312;;;23.37;77.17
44531;BME280;30240;47.418;0.700;2023-08-24T05:08:09;99909.4970703125;;;23.34;77.19
44531;BME280;30240;47.418;0.700;2023-08-24T05:10:33;99909.1064453125;;;23.31;77.17
44531;BME280;30240;47.418;0.700;2023-08-24T05:12:59;99909.1064453125;;;23.31;77.17
44531;BME280;30240;47.418;0.700;2023-08-24T05:15:24;99905.6884765625;;;23.41;77.12
44531;BME280;30240;47.418;0.700;2023-08-24T05:17:49;99904.62646484375;;;23.39;77.27
44531;BME280;30240;47.418;0.700;2023-08-24T05:20:14;99896.6064453125;;;23.2;77.69
44531;BME280;30240;47.418;0.700;2023-08-24T05:22:39;99894.42749023438;;;23.35;77.27
44531;BME280;30240;47.418;0.700;2023-08-24T05:25:04;99894.42749023438;;;23.35;77.27
44531;BME280;30240;47.418;0.700;2023-08-24T05:27:29;99893.44482421875;;;23.28;77.52
44531;BME280;30240;47.418;0.700;2023-08-24T05:29:54;99889.78271484375;;;23.18;77.74
44531;BME280;30240;47.418;0.700;2023-08-24T05:32:18;99885.38818359375;;;23.03;78.12
44531;BME280;30240;47.418;0.700;2023-08-24T05:34:44;99880.27954101562;;;23.14;78.01
44531;BME280;30240;47.418;0.700;2023-08-24T05:37:08;99880.27954101562;;;23.14;78.01
44531;BME280;30240;47.418;0.700;2023-08-24T05:39:34;99885.26000976562;;;23.32;77.59
44531;BME280;30240;47.418;0.700;2023-08-24T05:41:59;99879.6142578125;;;23.2;78.04
44531;BME280;30240;47.418;0.700;2023-08-24T05:44:23;99880.15747070312;;;23.17;78.04
44531;BME280;30240;47.418;0.700;2023-08-24T05:46:49;99865.98510742188;;;23.24;78.07
44531;BME280;30240;47.418;0.700;2023-08-24T05:49:13;99865.98510742188;;;23.24;78.07
44531;BME280;30240;47.418;0.700;2023-08-24T05:51:39;99853.81469726562;;;23.31;78.18
44531;BME280;30240;47.418;0.700;2023-08-24T05:54:04;99858.11157226562;;;23.42;78.08
44531;BME280;30240;47.418;0.700;2023-08-24T05:56:29;99853.54614257812;;;23.37;78.22
44531;BME280;30240;47.418;0.700;2023-08-24T05:58:54;99855.18798828125;;;23.27;78.44
44531;BME280;30240;47.418;0.700;2023-08-24T06:01:19;99855.18798828125;;;23.27;78.44
44531;BME280;30240;47.418;0.700;2023-08-24T06:03:43;99852.50244140625;;;23.34;78.19
44531;BME280;30240;47.418;0.700;2023-08-24T06:06:09;99861.88354492188;;;23.63;78.03
44531;BME280;30240;47.418;0.700;2023-08-24T06:08:34;99861.962890625;;;23.71;77.76
44531;BME280;30240;47.418;0.700;2023-08-24T06:10:59;99857.80639648438;;;23.52;78.05
44531;BME280;30240;47.418;0.700;2023-08-24T06:13:24;99853.173828125;;;23.48;78.36
44531;BME280;30240;47.418;0.700;2023-08-24T06:15:49;99853.173828125;;;23.48;78.36
44531;BME280;30240;47.418;0.700;2023-08-24T06:18:14;99833.50219726562;;;23.71;77.98
44531;BME280;30240;47.418;0.700;2023-08-24T06:20:39;99822.10693359375;;;23.8;77.84
44531;BME280;30240;47.418;0.700;2023-08-24T06:23:03;99820.751953125;;;23.76;77.71
44531;BME280;30240;47.418;0.700;2023-08-24T06:25:28;99838.65356445312;;;23.92;77.49
44531;BME280;30240;47.418;0.700;2023-08-24T06:27:53;99838.65356445312;;;23.92;77.49
44531;BME280;30240;47.418;0.700;2023-08-24T06:30:19;99835.7666015625;;;23.98;77.57
44531;BME280;30240;47.418;0.700;2023-08-24T06:32:44;99834.6435546875;;;24.05;77.23
44531;BME280;30240;47.418;0.700;2023-08-24T06:35:09;99818.86596679688;;;24.15;76.91
44531;BME280;30240;47.418;0.700;2023-08-24T06:37:34;99809.23461914062;;;24.01;77.31
44531;BME280;30240;47.418;0.700;2023-08-24T06:39:58;99809.23461914062;;;24.01;77.31
44531;BME280;30240;47.418;0.700;2023-08-24T06:42:23;99813.48266601562;;;24.26;76.43
44531;BME280;30240;47.418;0.700;2023-08-24T06:44:48;99824.12719726562;;;24.62;75.8
44531;BME280;30240;47.418;0.700;2023-08-24T06:47:13;99833.984375;;;24.69;75.63
44531;BME280;30240;47.418;0.700;2023-08-24T06:49:38;99814.04418945312;;;24.7;75.41
44531;BME280;30240;47.418;0.700;2023-08-24T06:52:04;99814.04418945312;;;24.7;75.41
44531;BME280;30240;47.418;0.700;2023-08-24T06:54:29;99809.34448242188;;;24.77;76.25
44531;BME280;30240;47.418;0.700;2023-08-24T06:56:54;99809.2041015625;;;25.05;75.03
44531;BME280;30240;47.418;0.700;2023-08-24T06:59:19;99819.2626953125;;;25.33;74.54
44531;BME280;30240;47.418;0.700;2023-08-24T07:01:44;99817.68798828125;;;25.14;74.82
44531;BME280;30240;47.418;0.700;2023-08-24T07:04:09;99817.68798828125;;;25.14;74.82
44531;BME280;30240;47.418;0.700;2023-08-24T07:06:34;99794.76318359375;;;25.28;74.73
44531;BME280;30240;47.418;0.700;2023-08-24T07:08:58;99792.51708984375;;;24.77;75.57
44531;BME280;30240;47.418;0.700;2023-08-24T07:11:23;99806.81762695312;;;25.26;74.93
44531;BME280;30240;47.418;0.700;2023-08-24T07:13:48;99838.95263671875;;;25.6;74.12
44531;BME280;30240;47.418;0.700;2023-08-24T07:16:14;99838.95263671875;;;25.6;74.12
44531;BME280;30240;47.418;0.700;2023-08-24T07:18:38;99841.4794921875;;;25.12;75.37
44531;BME280;30240;47.418;0.700;2023-08-24T07:21:03;99826.08032226562;;;25.39;74.62
44531;BME280;30240;47.418;0.700;2023-08-24T07:23:29;99829.248046875;;;25.33;74.55
44531;BME280;30240;47.418;0.700;2023-08-24T07:25:54;99816.03393554688;;;25.43;74.58
44531;BME280;30240;47.418;0.700;2023-08-24T07:28:19;99816.03393554688;;;25.43;74.58
44531;BME280;30240;47.418;0.700;2023-08-24T07:30:43;99826.40380859375;;;25.66;73.92
44531;BME280;30240;47.418;0.700;2023-08-24T07:33:09;99819.3115234375;;;25.47;74.41
44531;BME280;30240;47.418;0.700;2023-08-24T07:35:34;99848.93798828125;;;25.59;74.36
44531;BME280;30240;47.418;0.700;2023-08-24T07:38:00;99888.97705078125;;;25.1;75.76
44531;BME280;30240;47.418;0.700;2023-08-24T07:40:24;99853.79638671875;;;25.12;75.73
44531;BME280;30240;47.418;0.700;2023-08-24T07:42:50;99853.79638671875;;;25.12;75.73
44531;BME280;30240;47.418;0.700;2023-08-24T07:45:14;99875.732421875;;;25.26;75.43
44531;BME280;30240;47.418;0.700;2023-08-24T07:47:39;99878.88793945312;;;25.75;74.44
44531;BME280;30240;47.418;0.700;2023-08-24T07:50:04;99872.4365234375;;;25.7;73.68
44531;BME280;30240;47.418;0.700;2023-08-24T07:52:29;99868.9697265625;;;25.85;73.62
44531;BME280;30240;47.418;0.700;2023-08-24T07:54:54;99868.9697265625;;;25.85;73.62
44531;BME280;30240;47.418;0.700;2023-08-24T07:57:19;99877.22778320312;;;25.87;73.73
44531;BME280;30240;47.418;0.700;2023-08-24T07:59:43;99897.56469726562;;;25.74;74.81
44531;BME280;30240;47.418;0.700;2023-08-24T08:02:08;99900.72021484375;;;26.25;73.26
44531;BME280;30240;47.418;0.700;2023-08-24T08:04:34;99892.919921875;;;25.82;74.18
44531;BME280;30240;47.418;0.700;2023-08-24T08:06:58;99892.919921875;;;25.82;74.18
44531;BME280;30240;47.418;0.700;2023-08-24T08:09:23;99903.33862304688;;;25.42;75.3
44531;BME280;30240;47.418;0.700;2023-08-24T08:11:49;99916.21704101562;;;25.12;75.93
44531;BME280;30240;47.418;0.700;2023-08-24T08:14:14;99915.87524414062;;;25.05;76.47
44531;BME280;30240;47.418;0.700;2023-08-24T08:16:39;99952.04467773438;;;24.84;76.81
44531;BME280;30240;47.418;0.700;2023-08-24T08:19:03;99952.04467773438;;;24.84;76.81
44531;BME280;30240;47.418;0.700;2023-08-24T08:21:28;99960.7421875;;;24.9;76.78
44531;BME280;30240;47.418;0.700;2023-08-24T08:23:53;99943.46313476562;;;24.71;77.47
44531;BME280;30240;47.418;0.700;2023-08-24T08:26:19;99954.74853515625;;;24.56;78.02
44531;BME280;30240;47.418;0.700;2023-08-24T08:28:44;99902.392578125;;;24.49;78.12
44531;BME280;30240;47.418;0.700;2023-08-24T08:31:09;99902.392578125;;;24.49;78.12
44531;BME280;30240;47.418;0.700;2023-08-24T08:33:34;99914.43481445312;;;24.3;79.45
44531;BME280;30240;47.418;0.700;2023-08-24T08:35:59;99946.37451171875;;;24.05;79.54
44531;BME280;30240;47.418;0.700;2023-08-24T08:38:23;100009.74731445312;;;24.14;79.24
44531;BME280;30240;47.418;0.700;2023-08-24T08:40:49;100036.32202148438;;;24.42;78.99
44531;BME280;30240;47.418;0.700;2023-08-24T08:43:14;100036.32202148438;;;24.42;78.99
44531;BME280;30240;47.418;0.700;2023-08-24T08:45:39;99975.37231445312;;;24.53;78.88
44531;BME280;30240;47.418;0.700;2023-08-24T08:48:05;99967.15698242188;;;24.51;79.22
44531;BME280;30240;47.418;0.700;2023-08-24T08:50:30;99994.95849609375;;;24.28;79.7
44531;BME280;30240;47.418;0.700;2023-08-24T08:52:53;99976.52587890625;;;24.14;79.9
44531;BME280;30240;47.418;0.700;2023-08-24T08:55:19;99976.52587890625;;;24.14;79.9
44531;BME280;30240;47.418;0.700;2023-08-24T08:57:45;99975.89111328125;;;24.08;79.94
44531;BME280;30240;47.418;0.700;2023-08-24T09:00:10;99959.5458984375;;;24.08;79.83
44531;BME280;30240;47.418;0.700;2023-08-24T09:02:34;99961.80419921875;;;24.03;80.04
44531;BME280;30240;47.418;0.700;2023-08-24T09:04:59;99976.19018554688;;;23.97;80.31
44531;BME280;30240;47.418;0.700;2023-08-24T09:07:24;99976.19018554688;;;23.97;80.31
44531;BME280;30240;47.418;0.700;2023-08-24T09:09:48;100008.4228515625;;;23.84;80.52
44531;BME280;30240;47.418;0.700;2023-08-24T09:12:14;100045.8740234375;;;23.83;80.73
44531;BME280;30240;47.418;0.700;2023-08-24T09:14:38;100117.13256835938;;;23.86;80.56
44531;BME280;30240;47.418;0.700;2023-08-24T09:17:04;100194.90356445312;;;23.84;80.91
44531;BME280;30240;47.418;0.700;2023-08-24T09:19:29;100274.24926757812;;;23.56;81.72
44531;BME280;30240;47.418;0.700;2023-08-24T09:21:56;100274.24926757812;;;23.56;81.72
44531;BME280;30240;47.418;0.700;2023-08-24T09:24:29;100284.9609375;;;23.15;83.24
44531;BME280;30240;47.418;0.700;2023-08-24T09:26:43;100298.66943359375;;;22.82;85.16
44531;BME280;30240;47.418;0.700;2023-08-24T09:29:11;100305.859375;;;22.52;85.67
44531;BME280;30240;47.418;0.700;2023-08-24T09:31:34;100323.2666015625;;;22.52;86.23
44531;BME280;30240;47.418;0.700;2023-08-24T09:34:00;100323.2666015625;;;22.52;86.23
44531;BME280;30240;47.418;0.700;2023-08-24T09:36:24;100335.04638671875;;;22.28;86.2
44531;BME280;30240;47.418;0.700;2023-08-24T09:38:49;100315.1611328125;;;22.34;86.75
44531;BME280;30240;47.418;0.700;2023-08-24T09:41:14;100350.14038085938;;;22.25;86.61
44531;BME280;30240;47.418;0.700;2023-08-24T09:43:39;100324.54833984375;;;22.13;86.47
44531;BME280;30240;47.418;0.700;2023-08-24T09:46:04;100324.54833984375;;;22.13;86.47
44531;BME280;30240;47.418;0.700;2023-08-24T09:48:30;100309.23461914062;;;22.43;86.59
44531;BME280;30240;47.418;0.700;2023-08-24T09:50:56;100248.33374023438;;;22.34;86.36
44531;BME280;30240;47.418;0.700;2023-08-24T09:53:20;100183.740234375;;;22.13;86.46
44531;BME280;30240;47.418;0.700;2023-08-24T09:55:49;100118.19458007812;;;22.03;87.43
44531;BME280;30240;47.418;0.700;2023-08-24T09:55:53;100118.19458007812;;;22.03;87.43
44531;BME280;30240;47.418;0.700;2023-08-24T09:58:09;100118.19458007812;;;22.03;87.43
44531;BME280;30240;47.418;0.700;2023-08-24T10:00:34;100064.86206054688;;;21.79;87.64
44531;BME280;30240;47.418;0.700;2023-08-24T10:03:01;100004.638671875;;;21.82;87.2
44531;BME280;30240;47.418;0.700;2023-08-24T10:05:24;99949.46899414062;;;21.69;87.86
44531;BME280;30240;47.418;0.700;2023-08-24T10:07:51;99919.30541992188;;;21.61;88.26
44531;BME280;30240;47.418;0.700;2023-08-24T10:10:14;99919.30541992188;;;21.61;88.26
44531;BME280;30240;47.418;0.700;2023-08-24T10:12:43;99919.42138671875;;;21.65;87.72
44531;BME280;30240;47.418;0.700;2023-08-24T10:15:04;99932.5927734375;;;21.72;87.66
44531;BME280;30240;47.418;0.700;2023-08-24T10:17:29;99966.59545898438;;;21.75;87.62
44531;BME280;30240;47.418;0.700;2023-08-24T10:19:55;100042.65747070312;;;21.63;87.45
44531;BME280;30240;47.418;0.700;2023-08-24T10:22:19;100042.65747070312;;;21.63;87.45
44531;BME280;30240;47.418;0.700;2023-08-24T10:24:44;100130.859375;;;21.69;87.13
44531;BME280;30240;47.418;0.700;2023-08-24T10:27:09;100159.27124023438;;;21.85;87.16
44531;BME280;30240;47.418;0.700;2023-08-24T10:29:34;100209.84497070312;;;21.79;86.76
44531;BME280;30240;47.418;0.700;2023-08-24T10:32:00;100168.83544921875;;;21.75;87.91
44531;BME280;30240;47.418;0.700;2023-08-24T10:34:24;100168.83544921875;;;21.75;87.91
44531;BME280;30240;47.418;0.700;2023-08-24T10:36:49;100175.15869140625;;;21.74;87.52
44531;BME280;30240;47.418;0.700;2023-08-24T10:39:14;100182.24487304688;;;21.65;87.13
44531;BME280;30240;47.418;0.700;2023-08-24T10:41:47;100173.6572265625;;;21.53;87.23
44531;BME280;30240;47.418;0.700;2023-08-24T10:44:05;100146.42333984375;;;21.78;86.53
44531;BME280;30240;47.418;0.700;2023-08-24T10:46:34;100205.13916015625;;;21.92;85.85
44531;BME280;30240;47.418;0.700;2023-08-24T10:48:58;100205.13916015625;;;21.92;85.85
44531;BME280;30240;47.418;0.700;2023-08-24T10:51:22;100253.84521484375;;;21.89;85.92
44531;BME280;30240;47.418;0.700;2023-08-24T10:53:45;100246.34399414062;;;21.88;86.85
44531;BME280;30240;47.418;0.700;2023-08-24T10:56:10;100242.138671875;;;22.0;86.81
44531;BME280;30240;47.418;0.700;2023-08-24T10:58:34;100217.3095703125;;;21.82;87.58
44531;BME280;30240;47.418;0.700;2023-08-24T11:01:00;100217.3095703125;;;21.82;87.58
44531;BME280;30240;47.418;0.700;2023-08-24T11:03:30;100258.31909179688;;;21.68;88.12
44531;BME280;30240;47.418;0.700;2023-08-24T11:05:51;100284.28344726562;;;21.61;88.37
44531;BME280;30240;47.418;0.700;2023-08-24T11:08:13;100300.31127929688;;;21.54;88.18
44531;BME280;30240;47.418;0.700;2023-08-24T11:10:46;100291.21704101562;;;21.57;88.11
44531;BME280;30240;47.418;0.700;2023-08-24T11:13:04;100291.21704101562;;;21.57;88.11
44531;BME280;30240;47.418;0.700;2023-08-24T11:15:29;100260.595703125;;;21.66;87.92
44531;BME280;30240;47.418;0.700;2023-08-24T11:18:11;100235.6689453125;;;21.75;87.87
44531;BME280;30240;47.418;0.700;2023-08-24T11:20:21;100227.5390625;;;21.89;87.99